Nearby METAR Reports

 

K1V6 - Canon City, Colorado, USA
Distance from station: E 5mi, 8km
Updated: Tue, 07-Apr-2020 1:50pm MDT
Clear
Clear
 Wind from W
Wind: W 18 mph , 30 km/h, Gust: 35 mph , 56 km/h
Temperature: 75°F , 24°C
Dew Point: 7°F , -14°C
Humidity: 7%
Barometer: 29.96 inHg , 1014.6 hPa
Clouds: Clear
Visibility: 10 miles , 16 km
2020/04/07 19:50 K1V6 071950Z AUTO 28016G30KT 10SM CLR 24/M14 A2996 RMK AO2
KFCS - Fort Carson, Colorado, USA
Distance from station: NE 28mi, 44km
Updated: Tue, 07-Apr-2020 1:56pm MDT
Clear
Clear
 Wind from SSW
Wind: SSW 20 mph , 31 km/h, Gust: 28 mph , 44 km/h
Temperature: 73°F , 23°C
Dew Point: 1°F , -17°C
Humidity: 6%
Barometer: 29.95 inHg , 1014.2 hPa
Clouds: Clear
Visibility: 10 miles , 16 km
2020/04/07 19:56 KFCS 071956Z AUTO 20017G24KT 10SM CLR 23/M17 A2995 RMK AO2 PK WND 20033/34 SLP094 T02251169 $
 
KCWN - Cheyenne Mtn, Colorado, USA
Distance from station: NE 28mi, 45km
Updated: Tue, 07-Apr-2020 1:31pm MDT
Clear
Clear
 Wind from S
Wind: S 18 mph , 30 km/h, Gust: 26 mph , 43 km/h
Temperature: 68°F , 20°C
Dew Point: 5°F , -15°C
Humidity: 8%
Barometer: 29.97 inHg , 1014.9 hPa
Clouds: Clear
Visibility: 10 miles , 16 km
2020/04/07 19:31 KCWN 071931Z AUTO 17016G23KT 10SM CLR 20/M15 A2997 RMK AO2 WSHFT 29 SLP984 $
KCOS - Colorado Springs, Colorado, USA
Distance from station: NE 38mi, 60km
Updated: Tue, 07-Apr-2020 1:54pm MDT
Few Clouds
Few Clouds
 Wind from SW
Wind: SW 10 mph , 17 km/h
Temperature: 72°F , 22°C
Dew Point: 7°F , -14°C
Humidity: 8%
Barometer: 29.99 inHg , 1015.6 hPa
Clouds: Few Clouds
Visibility: 10 miles , 16 km
Cloud details: Few Clouds 10000 ft
2020/04/07 19:54 KCOS 071954Z 22009KT 10SM FEW100 22/M14 A2999 RMK AO2 SLP087 T02221144
 
KPUB - Pueblo, Colorado, USA
Distance from station: ESE 39mi, 63km
Updated: Tue, 07-Apr-2020 1:53pm MDT
Clear
Clear
 Wind from SW
Wind: SW 10 mph , 17 km/h, Gust: 17 mph , 28 km/h
Temperature: 79°F , 26°C
Dew Point: 9°F , -13°C
Humidity: 7%
Barometer: 29.93 inHg , 1013.5 hPa
Clouds: Clear
Visibility: 10 miles , 16 km
2020/04/07 19:53 KPUB 071953Z 22009G15KT 10SM CLR 26/M13 A2993 RMK AO2 SLP082 T02561133
KAFF - Usaf Academy/Cos, Colorado, USA
Distance from station: NNE 41mi, 66km
Updated: Tue, 07-Apr-2020 1:56pm MDT
Clear
Clear
 Wind from SSW
Wind: SSW 7 mph , 11 km/h
Temperature: 68°F , 20°C
Dew Point: 1°F , -17°C
Humidity: 7%
Barometer: 29.99 inHg , 1015.6 hPa
Clouds: Clear
Visibility: 10 miles , 16 km
2020/04/07 19:56 KAFF 071956Z AUTO 21006KT 10SM CLR 20/M17 A2999 RMK AO2 SLP088 T01961172
 
K4BM - Wilkerson Pass, Colorado, USA
Distance from station: NNW 45mi, 72km
Updated: Tue, 07-Apr-2020 1:54pm MDT
Clear
Clear
 Wind from SW
Wind: SW 16 mph , 26 km/h, Gust: 22 mph , 35 km/h
Temperature: 46°F , 8°C
Wind Chill: 39°F , 4°C
Dew Point: -0°F , -18°C
Humidity: 14%
Barometer: 30.25 inHg , 1024.4 hPa
Clouds: Clear
Visibility: 10 miles , 16 km
2020/04/07 19:54 K4BM 071954Z AUTO 23014G19KT 10SM CLR 08/M18 A3025 RMK AO2
KANK - Salida, Colorado, USA
Distance from station: W 47mi, 75km
Updated: Tue, 07-Apr-2020 1:55pm MDT
Clear
Clear
 Wind from WSW
Wind: WSW 12 mph , 19 km/h, Gust: 21 mph , 33 km/h
Temperature: 64°F , 18°C
Dew Point: 1°F , -17°C
Humidity: 8%
Barometer: 30.18 inHg , 1022 hPa
Clouds: Clear
Visibility: 10 miles , 16 km
2020/04/07 19:55 KANK 071955Z AUTO 25010G18KT 10SM CLR 18/M17 A3018 RMK AO1 T01761173
 
KFLY - Co Spngs Meadow, Colorado, USA
Distance from station: NE 48mi, 78km
Updated: Tue, 07-Apr-2020 1:55pm MDT
Clear
Clear
 Wind from SSE
Wind: SSE 3 mph , 6 km/h, Gust: 22 mph , 35 km/h
Temperature: 68°F , 20°C
Dew Point: 1°F , -17°C
Humidity: 7%
Barometer: 30.04 inHg , 1017.3 hPa
Clouds: Clear
Visibility: 10 miles , 16 km
2020/04/07 19:55 KFLY 071955Z AUTO 15003G19KT 10SM CLR 20/M17 A3004 RMK AO2 T01991174
KABH - Ellicott-B Afa, Colorado, USA
Distance from station: ENE 53mi, 85km
Updated: Tue, 07-Apr-2020 2:04pm MDT
Clear
Clear
 Wind from WSW
Wind: WSW 13 mph , 20 km/h, Gust: 25 mph , 41 km/h
Temperature: 72°F , 22°C
Dew Point: -4°F , -20°C
Humidity: 5%
Barometer: 30.01 inHg , 1016.3 hPa
Clouds: Clear
Visibility: 10 miles , 16 km
2020/04/07 20:04 KABH 072004Z AUTO 25011G22KT 10SM CLR 22/M20 A3001 RMK AO2 WSHFT 02 SLP116
 
KAEJ - Buena Vista, Colorado, USA
Distance from station: WNW 56mi, 90km
Updated: Tue, 07-Apr-2020 1:55pm MDT
Clear
Clear
 Wind from WSW
Wind: WSW 13 mph , 20 km/h, Gust: 23 mph , 37 km/h
Temperature: 61°F , 16°C
Dew Point: 1°F , -17°C
Humidity: 9%
Barometer: 30.11 inHg , 1019.6 hPa
Clouds: Clear
Visibility: 10 miles , 16 km
2020/04/07 19:55 KAEJ 071955Z AUTO 24011G20KT 10SM CLR 16/M17 A3011 RMK AO2 T01601170
K04V - Saguache Muni, Colorado, USA
Distance from station: WSW 58mi, 93km
Updated: Tue, 07-Apr-2020 1:52pm MDT
Clear
Clear
 Wind from SSE
Wind: SSE 8 mph , 13 km/h
Temperature: 61°F , 16°C
Dew Point: 5°F , -15°C
Humidity: 11%
Barometer: 30.13 inHg , 1020.3 hPa
Clouds: Clear
Visibility: 10 miles , 16 km
2020/04/07 19:52 K04V 071952Z AUTO 15007KT 10SM CLR 16/M15 A3013 RMK AO2
 
K7BM - Cottonwood Pass, Colorado, USA
Distance from station: WNW 60mi, 96km
Updated: Tue, 07-Apr-2020 1:48pm MDT
Clear
Clear
 Wind from W
Wind: W 13 mph , 20 km/h, Gust: 21 mph , 33 km/h
Temperature: 52°F , 11°C
Dew Point: -8°F , -22°C
Humidity: 8%
Barometer: 30.19 inHg , 1022.4 hPa
Clouds: Clear
Visibility: 10 miles , 16 km
2020/04/07 19:48 K7BM 071948Z AUTO 27011G18KT 10SM CLR 11/M22 A3019 RMK AO2
KMNH - Monument/Elbert, Colorado, USA
Distance from station: NNE 61mi, 98km
Updated: Tue, 07-Apr-2020 1:48pm MDT
Clear
Clear
 Wind from WSW
Wind: WSW 16 mph , 26 km/h, Gust: 24 mph , 39 km/h
Temperature: 64°F , 18°C
Dew Point: 9°F , -13°C
Humidity: 11%
Barometer: 30.04 inHg , 1017.3 hPa
Clouds: Clear
Visibility: 10 miles , 16 km
2020/04/07 19:48 KMNH 071948Z AUTO 25014G21KT 10SM CLR 18/M13 A3004 RMK AO2
 
KMYP - Monarch Pass, Colorado, USA
Distance from station: W 61mi, 98km
Updated: Tue, 07-Apr-2020 1:57pm MDT
Clear
Clear
 Wind from W
Wind: W 35 mph , 56 km/h, Gust: 40 mph , 65 km/h
Temperature: 37°F , 3°C
Wind Chill: 24°F , -4°C
Dew Point: 3°F , -16°C
Humidity: 23%
Barometer: 30.38 inHg , 1028.8 hPa
Clouds: Clear
Visibility: 10 miles , 16 km
2020/04/07 19:57 KMYP 071957Z AUTO 27030G35KT 10SM CLR 03/M16 A3038 RMK AO2
KALS - Alamosa, Colorado, USA
Distance from station: SSW 79mi, 127km
Updated: Tue, 07-Apr-2020 1:52pm MDT
Clear
Clear
 Wind from NNE
Wind: NNE 6 mph , 9 km/h
Temperature: 68°F , 20°C
Dew Point: -6°F , -21°C
Humidity: 5%
Barometer: 30.11 inHg , 1019.6 hPa
Clouds: Clear
Visibility: 10 miles , 16 km
2020/04/07 19:52 KALS 071952Z AUTO 02005KT 10SM CLR 20/M21 A3011 RMK AO2 SLP131 T02001211
 
KAPA - Denver/Arapahoe, Colorado, USA
Distance from station: NNE 79mi, 128km
Updated: Tue, 07-Apr-2020 1:53pm MDT
Few Clouds
Few Clouds
 Wind from NNE
Wind: NNE 8 mph , 13 km/h
Temperature: 72°F , 22°C
Dew Point: 16°F , -9°C
Humidity: 12%
Barometer: 29.96 inHg , 1014.6 hPa
Clouds: Few Clouds
Visibility: 10 miles , 16 km
Cloud details: Few Clouds 7000 ft
2020/04/07 19:53 KAPA 071953Z 02007KT 10SM FEW070 22/M09 A2996 RMK AO2 SLP097 T02171094
KRCV - Del Norte, Colorado, USA
Distance from station: SW 81mi, 130km
Updated: Tue, 07-Apr-2020 1:55pm MDT
Clear
Clear
 Wind from SW
Wind: SW 14 mph , 22 km/h, Gust: 22 mph , 35 km/h
Temperature: 61°F , 16°C
Dew Point: 5°F , -15°C
Humidity: 11%
Barometer: 30.15 inHg , 1021 hPa
Clouds: Clear
Visibility: 10 miles , 16 km
2020/04/07 19:55 KRCV 071955Z AUTO 23012G19KT 10SM CLR 16/M15 A3015 RMK AO2 T01591155
 
KLXV - Leadville, Colorado, USA
Distance from station: NW 81mi, 131km
Updated: Tue, 07-Apr-2020 1:53pm MDT
Clear
Clear
 Wind from WNW
Wind: WNW 9 mph , 15 km/h, Gust: 21 mph , 33 km/h
Temperature: 45°F , 7°C
Wind Chill: 40°F , 4°C
Dew Point: 7°F , -14°C
Humidity: 21%
Barometer: 30.18 inHg , 1022 hPa
Clouds: Clear
Visibility: 10 miles , 16 km
2020/04/07 19:53 KLXV 071953Z AUTO 30008G18KT 10SM CLR 07/M14 A3018 RMK AO2 SLP118 T00671144
KCCU - Red Cliff Pass, Colorado, USA
Distance from station: NW 88mi, 142km
Updated: Tue, 07-Apr-2020 2:00pm MDT
Haze, Clear
Haze, Clear
 Wind from W
Wind: W 14 mph , 22 km/h, Gust: 29 mph , 46 km/h
Temperature: 37°F , 3°C
Wind Chill: 28°F , -2°C
Dew Point: 3°F , -16°C
Humidity: 23%
Barometer: 30.26 inHg , 1024.7 hPa
Summary: Haze
Clouds: Clear
Visibility: 5 miles , 8 km
2020/04/07 20:00 KCCU 072000Z AUTO 26012G25KT 5SM HZ CLR 03/M16 A3026 RMK AO2 P0001